River Hills, South Carolina
Current Conditions -  °F | °C
As of 4:54 PM on Monday 26 Jan 2015 (Local Time) from KAKH Reporting Station
Broken Clouds Broken Clouds  
Wind Chill: 52°   Ceiling: 7000
Heat Index: 52°   Visibility: 10mi
Dew Point: 29°   Wind: 7mph
Humidity: 41%   Direction: 290°WNW
Pressure: 29.63"   Gusts: NA
Location:  35.1039°N, 81.2451°W
Report Text: KAKH 262154Z AUTO 29006KT 10SM BKN070 BKN090 11/M02 A2963 RMK AO2 SLP035 T01111017
Loading
Personal Weather Stations






























Interactive Weather Map New forecast layout! Learn more

10-Day Weather Forecast

Advertisements
Track Severe Weather on mobile